sensor_id;sensor_type;location;lat;lon;timestamp;P1;durP1;ratioP1;P2;durP2;ratioP2
28343;SDS011;15597;50.914;6.638;2024-02-26T00:01:40;3.40;;;1.20;;
28343;SDS011;15597;50.914;6.638;2024-02-26T00:04:05;3.78;;;1.20;;
28343;SDS011;15597;50.914;6.638;2024-02-26T00:06:31;4.13;;;1.25;;
28343;SDS011;15597;50.914;6.638;2024-02-26T00:08:57;2.97;;;1.20;;
28343;SDS011;15597;50.914;6.638;2024-02-26T00:11:22;2.80;;;1.20;;
28343;SDS011;15597;50.914;6.638;2024-02-26T00:13:48;4.20;;;1.25;;
28343;SDS011;15597;50.914;6.638;2024-02-26T00:16:13;2.88;;;1.10;;
28343;SDS011;15597;50.914;6.638;2024-02-26T00:18:39;2.58;;;1.02;;
28343;SDS011;15597;50.914;6.638;2024-02-26T00:21:05;3.08;;;1.40;;
28343;SDS011;15597;50.914;6.638;2024-02-26T00:23:30;4.43;;;1.30;;
28343;SDS011;15597;50.914;6.638;2024-02-26T00:25:56;3.65;;;1.20;;
28343;SDS011;15597;50.914;6.638;2024-02-26T00:28:21;2.78;;;1.00;;
28343;SDS011;15597;50.914;6.638;2024-02-26T00:30:47;3.80;;;1.40;;
28343;SDS011;15597;50.914;6.638;2024-02-26T00:33:16;3.40;;;1.00;;
28343;SDS011;15597;50.914;6.638;2024-02-26T00:35:42;3.05;;;1.20;;
28343;SDS011;15597;50.914;6.638;2024-02-26T00:38:08;2.70;;;1.05;;
28343;SDS011;15597;50.914;6.638;2024-02-26T00:40:33;5.32;;;1.30;;
28343;SDS011;15597;50.914;6.638;2024-02-26T00:42:59;3.30;;;1.02;;
28343;SDS011;15597;50.914;6.638;2024-02-26T00:45:25;1.85;;;0.80;;
28343;SDS011;15597;50.914;6.638;2024-02-26T00:47:51;2.58;;;1.00;;
28343;SDS011;15597;50.914;6.638;2024-02-26T00:50:17;3.10;;;1.10;;
28343;SDS011;15597;50.914;6.638;2024-02-26T00:52:42;3.05;;;0.90;;
28343;SDS011;15597;50.914;6.638;2024-02-26T00:55:08;2.67;;;1.00;;
28343;SDS011;15597;50.914;6.638;2024-02-26T00:57:34;3.45;;;1.00;;
28343;SDS011;15597;50.914;6.638;2024-02-26T01:00:00;3.35;;;1.02;;
28343;SDS011;15597;50.914;6.638;2024-02-26T01:02:26;2.78;;;0.90;;
28343;SDS011;15597;50.914;6.638;2024-02-26T01:04:52;3.42;;;1.00;;
28343;SDS011;15597;50.914;6.638;2024-02-26T01:07:18;3.60;;;1.00;;
28343;SDS011;15597;50.914;6.638;2024-02-26T01:09:44;2.92;;;0.90;;
28343;SDS011;15597;50.914;6.638;2024-02-26T01:12:10;3.35;;;1.10;;
28343;SDS011;15597;50.914;6.638;2024-02-26T01:14:36;2.22;;;0.82;;
28343;SDS011;15597;50.914;6.638;2024-02-26T01:17:01;3.05;;;1.00;;
28343;SDS011;15597;50.914;6.638;2024-02-26T01:19:28;2.70;;;0.98;;
28343;SDS011;15597;50.914;6.638;2024-02-26T01:21:53;2.63;;;0.85;;
28343;SDS011;15597;50.914;6.638;2024-02-26T01:24:19;2.35;;;0.93;;
28343;SDS011;15597;50.914;6.638;2024-02-26T01:26:44;2.88;;;0.93;;
28343;SDS011;15597;50.914;6.638;2024-02-26T01:29:10;2.60;;;1.00;;
28343;SDS011;15597;50.914;6.638;2024-02-26T01:31:35;2.67;;;1.00;;
28343;SDS011;15597;50.914;6.638;2024-02-26T01:34:02;2.03;;;0.80;;
28343;SDS011;15597;50.914;6.638;2024-02-26T01:36:27;2.60;;;0.88;;
28343;SDS011;15597;50.914;6.638;2024-02-26T01:38:53;3.40;;;1.10;;
28343;SDS011;15597;50.914;6.638;2024-02-26T01:41:20;1.92;;;0.75;;
28343;SDS011;15597;50.914;6.638;2024-02-26T01:43:46;2.47;;;0.98;;
28343;SDS011;15597;50.914;6.638;2024-02-26T01:46:12;2.78;;;1.00;;
28343;SDS011;15597;50.914;6.638;2024-02-26T01:48:40;2.25;;;0.90;;
28343;SDS011;15597;50.914;6.638;2024-02-26T01:51:07;2.40;;;1.10;;
28343;SDS011;15597;50.914;6.638;2024-02-26T01:53:33;3.38;;;1.00;;
28343;SDS011;15597;50.914;6.638;2024-02-26T01:56:00;2.55;;;0.93;;
28343;SDS011;15597;50.914;6.638;2024-02-26T01:58:25;2.88;;;1.02;;
28343;SDS011;15597;50.914;6.638;2024-02-26T02:00:52;2.65;;;0.82;;
28343;SDS011;15597;50.914;6.638;2024-02-26T02:03:17;2.80;;;1.00;;
28343;SDS011;15597;50.914;6.638;2024-02-26T02:05:44;1.77;;;0.70;;
28343;SDS011;15597;50.914;6.638;2024-02-26T02:08:10;3.47;;;0.90;;
28343;SDS011;15597;50.914;6.638;2024-02-26T02:10:37;2.50;;;1.00;;
28343;SDS011;15597;50.914;6.638;2024-02-26T02:13:04;1.75;;;0.80;;
28343;SDS011;15597;50.914;6.638;2024-02-26T02:15:30;2.20;;;0.70;;
28343;SDS011;15597;50.914;6.638;2024-02-26T02:17:55;1.63;;;0.70;;
28343;SDS011;15597;50.914;6.638;2024-02-26T02:20:33;3.45;;;1.10;;
28343;SDS011;15597;50.914;6.638;2024-02-26T02:23:00;2.80;;;0.90;;
28343;SDS011;15597;50.914;6.638;2024-02-26T02:25:26;3.15;;;1.00;;
28343;SDS011;15597;50.914;6.638;2024-02-26T02:27:55;2.72;;;1.00;;
28343;SDS011;15597;50.914;6.638;2024-02-26T02:30:25;2.05;;;0.88;;
28343;SDS011;15597;50.914;6.638;2024-02-26T02:32:53;2.00;;;0.77;;
28343;SDS011;15597;50.914;6.638;2024-02-26T02:35:19;1.80;;;0.70;;
28343;SDS011;15597;50.914;6.638;2024-02-26T02:37:44;2.72;;;0.85;;
28343;SDS011;15597;50.914;6.638;2024-02-26T02:40:10;2.60;;;0.98;;
28343;SDS011;15597;50.914;6.638;2024-02-26T02:42:35;2.25;;;0.77;;
28343;SDS011;15597;50.914;6.638;2024-02-26T02:45:01;1.83;;;0.80;;
28343;SDS011;15597;50.914;6.638;2024-02-26T02:47:26;1.65;;;0.60;;
28343;SDS011;15597;50.914;6.638;2024-02-26T02:49:53;2.95;;;0.90;;
28343;SDS011;15597;50.914;6.638;2024-02-26T02:52:19;3.38;;;1.00;;
28343;SDS011;15597;50.914;6.638;2024-02-26T02:54:45;2.20;;;0.80;;
28343;SDS011;15597;50.914;6.638;2024-02-26T02:57:12;2.25;;;0.82;;
28343;SDS011;15597;50.914;6.638;2024-02-26T02:59:37;2.00;;;0.90;;
28343;SDS011;15597;50.914;6.638;2024-02-26T03:02:05;2.67;;;0.70;;
28343;SDS011;15597;50.914;6.638;2024-02-26T03:04:31;1.73;;;0.70;;
28343;SDS011;15597;50.914;6.638;2024-02-26T03:06:57;3.03;;;0.93;;
28343;SDS011;15597;50.914;6.638;2024-02-26T03:09:23;2.75;;;1.05;;
28343;SDS011;15597;50.914;6.638;2024-02-26T03:11:49;2.92;;;0.80;;
28343;SDS011;15597;50.914;6.638;2024-02-26T03:14:14;2.65;;;0.80;;
28343;SDS011;15597;50.914;6.638;2024-02-26T03:16:40;3.00;;;0.80;;
28343;SDS011;15597;50.914;6.638;2024-02-26T03:19:06;3.22;;;0.90;;
28343;SDS011;15597;50.914;6.638;2024-02-26T03:21:32;1.60;;;0.70;;
28343;SDS011;15597;50.914;6.638;2024-02-26T03:23:58;2.90;;;0.80;;
28343;SDS011;15597;50.914;6.638;2024-02-26T03:26:23;2.58;;;0.93;;
28343;SDS011;15597;50.914;6.638;2024-02-26T03:28:49;2.88;;;0.98;;
28343;SDS011;15597;50.914;6.638;2024-02-26T03:31:15;2.55;;;0.90;;
28343;SDS011;15597;50.914;6.638;2024-02-26T03:33:40;1.83;;;0.80;;
28343;SDS011;15597;50.914;6.638;2024-02-26T03:36:06;2.90;;;1.10;;
28343;SDS011;15597;50.914;6.638;2024-02-26T03:38:33;2.95;;;0.95;;
28343;SDS011;15597;50.914;6.638;2024-02-26T03:40:59;1.65;;;0.70;;
28343;SDS011;15597;50.914;6.638;2024-02-26T03:43:24;1.67;;;0.70;;
28343;SDS011;15597;50.914;6.638;2024-02-26T03:45:50;2.45;;;1.00;;
28343;SDS011;15597;50.914;6.638;2024-02-26T03:48:16;3.15;;;0.70;;
28343;SDS011;15597;50.914;6.638;2024-02-26T03:50:41;2.90;;;0.85;;
28343;SDS011;15597;50.914;6.638;2024-02-26T03:53:07;2.92;;;0.73;;
28343;SDS011;15597;50.914;6.638;2024-02-26T03:55:34;3.72;;;0.80;;
28343;SDS011;15597;50.914;6.638;2024-02-26T03:58:00;1.92;;;0.80;;
28343;SDS011;15597;50.914;6.638;2024-02-26T04:00:26;3.58;;;0.90;;
28343;SDS011;15597;50.914;6.638;2024-02-26T04:02:54;2.60;;;0.90;;
28343;SDS011;15597;50.914;6.638;2024-02-26T04:05:19;2.88;;;0.88;;
28343;SDS011;15597;50.914;6.638;2024-02-26T04:07:45;2.75;;;1.00;;
28343;SDS011;15597;50.914;6.638;2024-02-26T04:10:11;1.65;;;0.70;;
28343;SDS011;15597;50.914;6.638;2024-02-26T04:12:39;2.10;;;0.90;;
28343;SDS011;15597;50.914;6.638;2024-02-26T04:15:07;4.00;;;1.00;;
28343;SDS011;15597;50.914;6.638;2024-02-26T04:17:33;2.72;;;0.90;;
28343;SDS011;15597;50.914;6.638;2024-02-26T04:19:59;2.50;;;0.75;;
28343;SDS011;15597;50.914;6.638;2024-02-26T04:22:24;4.15;;;1.05;;
28343;SDS011;15597;50.914;6.638;2024-02-26T04:24:50;2.28;;;0.82;;
28343;SDS011;15597;50.914;6.638;2024-02-26T04:27:16;1.95;;;0.75;;
28343;SDS011;15597;50.914;6.638;2024-02-26T04:29:41;2.78;;;1.05;;
28343;SDS011;15597;50.914;6.638;2024-02-26T04:32:07;2.85;;;1.00;;
28343;SDS011;15597;50.914;6.638;2024-02-26T04:34:32;2.55;;;0.80;;
28343;SDS011;15597;50.914;6.638;2024-02-26T04:36:58;2.50;;;0.70;;
28343;SDS011;15597;50.914;6.638;2024-02-26T04:39:24;2.00;;;0.73;;
28343;SDS011;15597;50.914;6.638;2024-02-26T04:41:49;2.70;;;0.90;;
28343;SDS011;15597;50.914;6.638;2024-02-26T04:44:15;2.13;;;0.80;;
28343;SDS011;15597;50.914;6.638;2024-02-26T04:46:40;2.90;;;0.80;;
28343;SDS011;15597;50.914;6.638;2024-02-26T04:49:06;3.58;;;1.10;;
28343;SDS011;15597;50.914;6.638;2024-02-26T04:51:31;3.40;;;0.85;;
28343;SDS011;15597;50.914;6.638;2024-02-26T04:53:57;1.73;;;0.70;;
28343;SDS011;15597;50.914;6.638;2024-02-26T04:56:23;2.30;;;1.00;;
28343;SDS011;15597;50.914;6.638;2024-02-26T04:58:48;2.22;;;0.88;;
28343;SDS011;15597;50.914;6.638;2024-02-26T05:01:15;3.67;;;0.90;;
28343;SDS011;15597;50.914;6.638;2024-02-26T05:03:42;3.60;;;0.90;;
28343;SDS011;15597;50.914;6.638;2024-02-26T05:06:08;2.80;;;1.02;;
28343;SDS011;15597;50.914;6.638;2024-02-26T05:08:34;2.42;;;0.90;;
28343;SDS011;15597;50.914;6.638;2024-02-26T05:11:01;3.50;;;1.00;;
28343;SDS011;15597;50.914;6.638;2024-02-26T05:13:31;2.08;;;0.80;;
28343;SDS011;15597;50.914;6.638;2024-02-26T05:15:57;2.33;;;0.98;;
28343;SDS011;15597;50.914;6.638;2024-02-26T05:18:22;1.63;;;0.70;;
28343;SDS011;15597;50.914;6.638;2024-02-26T05:20:48;2.58;;;0.85;;
28343;SDS011;15597;50.914;6.638;2024-02-26T05:23:14;2.40;;;0.90;;
28343;SDS011;15597;50.914;6.638;2024-02-26T05:25:39;2.58;;;1.10;;
28343;SDS011;15597;50.914;6.638;2024-02-26T05:28:06;3.00;;;1.08;;
28343;SDS011;15597;50.914;6.638;2024-02-26T05:30:32;1.52;;;0.80;;
28343;SDS011;15597;50.914;6.638;2024-02-26T05:32:58;2.67;;;0.75;;
28343;SDS011;15597;50.914;6.638;2024-02-26T05:35:23;2.97;;;0.98;;
28343;SDS011;15597;50.914;6.638;2024-02-26T05:37:50;2.70;;;0.95;;
28343;SDS011;15597;50.914;6.638;2024-02-26T05:40:15;2.10;;;0.82;;
28343;SDS011;15597;50.914;6.638;2024-02-26T05:42:41;1.88;;;0.80;;
28343;SDS011;15597;50.914;6.638;2024-02-26T05:45:09;3.42;;;0.90;;
28343;SDS011;15597;50.914;6.638;2024-02-26T05:47:35;1.77;;;0.82;;
28343;SDS011;15597;50.914;6.638;2024-02-26T05:50:03;1.98;;;0.90;;
28343;SDS011;15597;50.914;6.638;2024-02-26T05:52:29;2.70;;;0.85;;
28343;SDS011;15597;50.914;6.638;2024-02-26T05:54:56;3.00;;;0.80;;
28343;SDS011;15597;50.914;6.638;2024-02-26T05:57:21;2.17;;;0.90;;
28343;SDS011;15597;50.914;6.638;2024-02-26T05:59:47;2.72;;;1.08;;
28343;SDS011;15597;50.914;6.638;2024-02-26T06:02:13;3.45;;;1.00;;
28343;SDS011;15597;50.914;6.638;2024-02-26T06:04:38;2.53;;;0.90;;
28343;SDS011;15597;50.914;6.638;2024-02-26T06:07:04;2.15;;;0.80;;
28343;SDS011;15597;50.914;6.638;2024-02-26T06:09:30;3.58;;;1.05;;
28343;SDS011;15597;50.914;6.638;2024-02-26T06:11:56;3.13;;;1.17;;
28343;SDS011;15597;50.914;6.638;2024-02-26T06:14:21;5.00;;;1.20;;
28343;SDS011;15597;50.914;6.638;2024-02-26T06:16:47;2.60;;;0.90;;
28343;SDS011;15597;50.914;6.638;2024-02-26T06:19:13;3.22;;;1.00;;
28343;SDS011;15597;50.914;6.638;2024-02-26T06:21:38;3.13;;;1.20;;
28343;SDS011;15597;50.914;6.638;2024-02-26T06:24:04;2.25;;;0.88;;
28343;SDS011;15597;50.914;6.638;2024-02-26T06:26:30;3.15;;;1.00;;
28343;SDS011;15597;50.914;6.638;2024-02-26T06:28:55;3.00;;;1.17;;
28343;SDS011;15597;50.914;6.638;2024-02-26T06:31:21;2.53;;;1.00;;
28343;SDS011;15597;50.914;6.638;2024-02-26T06:33:48;2.90;;;1.08;;
28343;SDS011;15597;50.914;6.638;2024-02-26T06:36:17;2.42;;;0.90;;
28343;SDS011;15597;50.914;6.638;2024-02-26T06:38:43;2.20;;;0.95;;
28343;SDS011;15597;50.914;6.638;2024-02-26T06:41:09;3.33;;;1.05;;
28343;SDS011;15597;50.914;6.638;2024-02-26T06:43:34;3.10;;;0.95;;
28343;SDS011;15597;50.914;6.638;2024-02-26T06:46:00;2.08;;;0.90;;
28343;SDS011;15597;50.914;6.638;2024-02-26T06:48:26;2.55;;;0.80;;
28343;SDS011;15597;50.914;6.638;2024-02-26T06:50:52;3.42;;;1.17;;
28343;SDS011;15597;50.914;6.638;2024-02-26T06:53:18;4.43;;;1.50;;
28343;SDS011;15597;50.914;6.638;2024-02-26T06:55:43;2.85;;;1.30;;
28343;SDS011;15597;50.914;6.638;2024-02-26T06:58:09;4.03;;;1.20;;
28343;SDS011;15597;50.914;6.638;2024-02-26T07:00:35;2.63;;;1.02;;
28343;SDS011;15597;50.914;6.638;2024-02-26T07:03:00;3.05;;;1.23;;
28343;SDS011;15597;50.914;6.638;2024-02-26T07:05:27;3.40;;;1.17;;
28343;SDS011;15597;50.914;6.638;2024-02-26T07:07:53;2.78;;;0.90;;
28343;SDS011;15597;50.914;6.638;2024-02-26T07:10:18;2.75;;;0.90;;
28343;SDS011;15597;50.914;6.638;2024-02-26T07:12:44;2.83;;;1.20;;
28343;SDS011;15597;50.914;6.638;2024-02-26T07:15:10;2.72;;;1.08;;
28343;SDS011;15597;50.914;6.638;2024-02-26T07:17:35;4.50;;;1.20;;
28343;SDS011;15597;50.914;6.638;2024-02-26T07:20:01;4.63;;;1.33;;
28343;SDS011;15597;50.914;6.638;2024-02-26T07:22:29;4.28;;;1.27;;
28343;SDS011;15597;50.914;6.638;2024-02-26T07:24:55;4.32;;;1.20;;
28343;SDS011;15597;50.914;6.638;2024-02-26T07:27:21;3.13;;;1.30;;
28343;SDS011;15597;50.914;6.638;2024-02-26T07:29:46;2.33;;;1.05;;
28343;SDS011;15597;50.914;6.638;2024-02-26T07:32:13;3.58;;;1.15;;
28343;SDS011;15597;50.914;6.638;2024-02-26T07:34:39;2.42;;;0.98;;
28343;SDS011;15597;50.914;6.638;2024-02-26T07:37:07;3.55;;;1.10;;
28343;SDS011;15597;50.914;6.638;2024-02-26T07:39:33;3.65;;;1.20;;
28343;SDS011;15597;50.914;6.638;2024-02-26T07:41:59;3.80;;;1.27;;
28343;SDS011;15597;50.914;6.638;2024-02-26T07:44:24;2.95;;;1.20;;
28343;SDS011;15597;50.914;6.638;2024-02-26T07:46:50;3.67;;;1.27;;
28343;SDS011;15597;50.914;6.638;2024-02-26T07:49:15;3.53;;;1.42;;
28343;SDS011;15597;50.914;6.638;2024-02-26T07:51:41;2.92;;;1.30;;
28343;SDS011;15597;50.914;6.638;2024-02-26T07:54:07;3.25;;;1.02;;
28343;SDS011;15597;50.914;6.638;2024-02-26T07:56:32;3.83;;;1.45;;
28343;SDS011;15597;50.914;6.638;2024-02-26T07:58:58;3.15;;;1.23;;
28343;SDS011;15597;50.914;6.638;2024-02-26T08:01:24;5.20;;;1.40;;
28343;SDS011;15597;50.914;6.638;2024-02-26T08:03:51;3.92;;;1.20;;
28343;SDS011;15597;50.914;6.638;2024-02-26T08:06:17;2.70;;;1.20;;
28343;SDS011;15597;50.914;6.638;2024-02-26T08:08:42;2.75;;;1.02;;
28343;SDS011;15597;50.914;6.638;2024-02-26T08:11:09;3.75;;;1.40;;
28343;SDS011;15597;50.914;6.638;2024-02-26T08:13:34;2.80;;;1.13;;
28343;SDS011;15597;50.914;6.638;2024-02-26T08:16:01;3.08;;;1.30;;
28343;SDS011;15597;50.914;6.638;2024-02-26T08:18:26;4.72;;;1.30;;
28343;SDS011;15597;50.914;6.638;2024-02-26T08:20:52;4.50;;;1.15;;
28343;SDS011;15597;50.914;6.638;2024-02-26T08:23:18;2.45;;;1.10;;
28343;SDS011;15597;50.914;6.638;2024-02-26T08:25:43;2.47;;;1.00;;
28343;SDS011;15597;50.914;6.638;2024-02-26T08:28:09;3.35;;;1.23;;
28343;SDS011;15597;50.914;6.638;2024-02-26T08:30:38;2.83;;;1.23;;
28343;SDS011;15597;50.914;6.638;2024-02-26T08:33:04;3.45;;;1.30;;
28343;SDS011;15597;50.914;6.638;2024-02-26T08:35:29;3.28;;;1.40;;
28343;SDS011;15597;50.914;6.638;2024-02-26T08:37:55;3.72;;;1.30;;
28343;SDS011;15597;50.914;6.638;2024-02-26T08:40:21;3.70;;;1.10;;
28343;SDS011;15597;50.914;6.638;2024-02-26T08:42:46;3.60;;;1.38;;
28343;SDS011;15597;50.914;6.638;2024-02-26T08:45:12;3.58;;;1.52;;
28343;SDS011;15597;50.914;6.638;2024-02-26T08:47:38;2.67;;;0.90;;
28343;SDS011;15597;50.914;6.638;2024-02-26T08:50:04;3.08;;;1.15;;
28343;SDS011;15597;50.914;6.638;2024-02-26T08:52:30;3.90;;;2.20;;
28343;SDS011;15597;50.914;6.638;2024-02-26T08:54:55;5.22;;;1.23;;
28343;SDS011;15597;50.914;6.638;2024-02-26T08:57:22;4.13;;;1.38;;
28343;SDS011;15597;50.914;6.638;2024-02-26T08:59:48;4.50;;;1.20;;
28343;SDS011;15597;50.914;6.638;2024-02-26T09:02:13;4.85;;;1.20;;
28343;SDS011;15597;50.914;6.638;2024-02-26T09:04:39;4.28;;;1.40;;
28343;SDS011;15597;50.914;6.638;2024-02-26T09:07:05;6.00;;;1.40;;
28343;SDS011;15597;50.914;6.638;2024-02-26T09:09:31;4.10;;;1.20;;
28343;SDS011;15597;50.914;6.638;2024-02-26T09:11:57;2.97;;;1.15;;
28343;SDS011;15597;50.914;6.638;2024-02-26T09:14:22;4.15;;;1.40;;
28343;SDS011;15597;50.914;6.638;2024-02-26T09:16:48;3.75;;;1.25;;
28343;SDS011;15597;50.914;6.638;2024-02-26T09:19:17;3.58;;;1.30;;
28343;SDS011;15597;50.914;6.638;2024-02-26T09:21:45;5.07;;;1.10;;
28343;SDS011;15597;50.914;6.638;2024-02-26T09:24:11;3.55;;;1.30;;
28343;SDS011;15597;50.914;6.638;2024-02-26T09:26:38;3.47;;;1.33;;
28343;SDS011;15597;50.914;6.638;2024-02-26T09:29:03;5.25;;;1.30;;
28343;SDS011;15597;50.914;6.638;2024-02-26T09:31:30;2.95;;;1.33;;
28343;SDS011;15597;50.914;6.638;2024-02-26T09:33:55;3.30;;;1.20;;
28343;SDS011;15597;50.914;6.638;2024-02-26T09:36:21;5.25;;;1.52;;
28343;SDS011;15597;50.914;6.638;2024-02-26T09:38:47;4.05;;;1.30;;
28343;SDS011;15597;50.914;6.638;2024-02-26T09:41:16;5.20;;;1.40;;
28343;SDS011;15597;50.914;6.638;2024-02-26T09:43:43;4.80;;;1.42;;
28343;SDS011;15597;50.914;6.638;2024-02-26T09:46:11;4.78;;;1.50;;
28343;SDS011;15597;50.914;6.638;2024-02-26T09:48:37;2.83;;;1.20;;
28343;SDS011;15597;50.914;6.638;2024-02-26T09:51:03;4.07;;;1.40;;
28343;SDS011;15597;50.914;6.638;2024-02-26T09:53:29;3.97;;;1.20;;
28343;SDS011;15597;50.914;6.638;2024-02-26T09:55:57;4.22;;;1.30;;
28343;SDS011;15597;50.914;6.638;2024-02-26T09:58:27;2.65;;;1.10;;
28343;SDS011;15597;50.914;6.638;2024-02-26T10:00:56;2.88;;;1.20;;
28343;SDS011;15597;50.914;6.638;2024-02-26T10:03:28;3.85;;;1.30;;
28343;SDS011;15597;50.914;6.638;2024-02-26T10:05:59;5.10;;;1.55;;
28343;SDS011;15597;50.914;6.638;2024-02-26T10:08:28;3.50;;;1.20;;
28343;SDS011;15597;50.914;6.638;2024-02-26T10:10:55;3.72;;;1.30;;
28343;SDS011;15597;50.914;6.638;2024-02-26T10:13:21;4.90;;;1.40;;
28343;SDS011;15597;50.914;6.638;2024-02-26T10:15:48;3.55;;;1.58;;
28343;SDS011;15597;50.914;6.638;2024-02-26T10:18:14;4.60;;;1.55;;
28343;SDS011;15597;50.914;6.638;2024-02-26T10:20:40;5.85;;;2.05;;
28343;SDS011;15597;50.914;6.638;2024-02-26T10:23:06;5.15;;;1.92;;
28343;SDS011;15597;50.914;6.638;2024-02-26T10:25:32;6.15;;;1.70;;
28343;SDS011;15597;50.914;6.638;2024-02-26T10:28:01;4.45;;;1.50;;
28343;SDS011;15597;50.914;6.638;2024-02-26T10:30:30;4.30;;;1.77;;
28343;SDS011;15597;50.914;6.638;2024-02-26T10:32:56;5.70;;;1.70;;
28343;SDS011;15597;50.914;6.638;2024-02-26T10:35:23;3.13;;;1.30;;
28343;SDS011;15597;50.914;6.638;2024-02-26T10:37:49;3.50;;;1.60;;
28343;SDS011;15597;50.914;6.638;2024-02-26T10:40:16;5.22;;;1.40;;
28343;SDS011;15597;50.914;6.638;2024-02-26T10:42:42;3.92;;;1.45;;
28343;SDS011;15597;50.914;6.638;2024-02-26T10:45:09;4.30;;;1.98;;
28343;SDS011;15597;50.914;6.638;2024-02-26T10:47:35;3.88;;;1.70;;
28343;SDS011;15597;50.914;6.638;2024-02-26T10:50:02;4.38;;;1.40;;
28343;SDS011;15597;50.914;6.638;2024-02-26T10:52:33;4.03;;;1.63;;
28343;SDS011;15597;50.914;6.638;2024-02-26T10:55:00;3.70;;;1.45;;
28343;SDS011;15597;50.914;6.638;2024-02-26T10:57:50;3.22;;;1.52;;
28343;SDS011;15597;50.914;6.638;2024-02-26T11:00:15;7.60;;;1.60;;
28343;SDS011;15597;50.914;6.638;2024-02-26T11:02:41;3.50;;;1.38;;
28343;SDS011;15597;50.914;6.638;2024-02-26T11:05:10;4.97;;;1.95;;
28343;SDS011;15597;50.914;6.638;2024-02-26T11:07:37;4.45;;;1.52;;
28343;SDS011;15597;50.914;6.638;2024-02-26T11:10:04;4.05;;;1.70;;
28343;SDS011;15597;50.914;6.638;2024-02-26T11:12:34;3.05;;;1.23;;
28343;SDS011;15597;50.914;6.638;2024-02-26T11:15:03;3.67;;;1.70;;
28343;SDS011;15597;50.914;6.638;2024-02-26T11:17:29;4.47;;;1.90;;
28343;SDS011;15597;50.914;6.638;2024-02-26T11:19:59;5.60;;;1.63;;
28343;SDS011;15597;50.914;6.638;2024-02-26T11:22:25;4.43;;;1.75;;
28343;SDS011;15597;50.914;6.638;2024-02-26T11:24:55;5.78;;;2.10;;
28343;SDS011;15597;50.914;6.638;2024-02-26T11:27:33;4.95;;;1.60;;
28343;SDS011;15597;50.914;6.638;2024-02-26T11:30:03;5.00;;;1.58;;
28343;SDS011;15597;50.914;6.638;2024-02-26T11:32:30;4.35;;;1.85;;
28343;SDS011;15597;50.914;6.638;2024-02-26T11:34:56;4.40;;;1.50;;
28343;SDS011;15597;50.914;6.638;2024-02-26T11:37:23;4.28;;;1.50;;
28343;SDS011;15597;50.914;6.638;2024-02-26T11:39:51;5.60;;;2.55;;
28343;SDS011;15597;50.914;6.638;2024-02-26T11:42:17;4.38;;;1.80;;
28343;SDS011;15597;50.914;6.638;2024-02-26T11:44:48;7.72;;;2.60;;
28343;SDS011;15597;50.914;6.638;2024-02-26T11:47:17;5.65;;;2.40;;
28343;SDS011;15597;50.914;6.638;2024-02-26T11:49:47;2.72;;;1.38;;
28343;SDS011;15597;50.914;6.638;2024-02-26T11:52:13;6.13;;;2.17;;
28343;SDS011;15597;50.914;6.638;2024-02-26T11:59:54;9.20;;;3.15;;
28343;SDS011;15597;50.914;6.638;2024-02-26T12:05:15;6.43;;;2.25;;
28343;SDS011;15597;50.914;6.638;2024-02-26T12:07:48;5.22;;;1.83;;
28343;SDS011;15597;50.914;6.638;2024-02-26T12:15:36;4.25;;;1.50;;
28343;SDS011;15597;50.914;6.638;2024-02-26T12:18:03;5.28;;;1.42;;
28343;SDS011;15597;50.914;6.638;2024-02-26T12:20:31;4.63;;;1.77;;
28343;SDS011;15597;50.914;6.638;2024-02-26T12:22:57;4.60;;;1.85;;
28343;SDS011;15597;50.914;6.638;2024-02-26T12:25:24;4.65;;;1.77;;
28343;SDS011;15597;50.914;6.638;2024-02-26T12:27:54;5.07;;;2.30;;
28343;SDS011;15597;50.914;6.638;2024-02-26T12:30:20;4.50;;;1.58;;
28343;SDS011;15597;50.914;6.638;2024-02-26T12:32:47;4.97;;;1.98;;
28343;SDS011;15597;50.914;6.638;2024-02-26T12:35:14;3.80;;;1.70;;
28343;SDS011;15597;50.914;6.638;2024-02-26T12:37:41;3.92;;;1.45;;
28343;SDS011;15597;50.914;6.638;2024-02-26T12:40:07;3.85;;;1.58;;
28343;SDS011;15597;50.914;6.638;2024-02-26T12:42:38;4.93;;;1.80;;
28343;SDS011;15597;50.914;6.638;2024-02-26T12:45:10;4.43;;;1.83;;
28343;SDS011;15597;50.914;6.638;2024-02-26T12:47:40;3.58;;;1.35;;
28343;SDS011;15597;50.914;6.638;2024-02-26T12:50:07;4.32;;;1.80;;
28343;SDS011;15597;50.914;6.638;2024-02-26T12:52:34;5.63;;;1.90;;
28343;SDS011;15597;50.914;6.638;2024-02-26T12:55:03;6.15;;;1.45;;
28343;SDS011;15597;50.914;6.638;2024-02-26T12:57:34;4.20;;;1.52;;
28343;SDS011;15597;50.914;6.638;2024-02-26T13:00:04;4.35;;;2.03;;
28343;SDS011;15597;50.914;6.638;2024-02-26T13:02:31;4.43;;;1.58;;
28343;SDS011;15597;50.914;6.638;2024-02-26T13:04:59;4.97;;;1.88;;
28343;SDS011;15597;50.914;6.638;2024-02-26T13:07:26;6.93;;;2.55;;
28343;SDS011;15597;50.914;6.638;2024-02-26T13:09:53;6.38;;;2.47;;
28343;SDS011;15597;50.914;6.638;2024-02-26T13:12:18;6.60;;;2.35;;
28343;SDS011;15597;50.914;6.638;2024-02-26T13:14:45;4.43;;;1.90;;
28343;SDS011;15597;50.914;6.638;2024-02-26T13:17:10;5.22;;;1.88;;
28343;SDS011;15597;50.914;6.638;2024-02-26T13:19:36;5.03;;;2.38;;
28343;SDS011;15597;50.914;6.638;2024-02-26T13:22:05;5.00;;;1.83;;
28343;SDS011;15597;50.914;6.638;2024-02-26T13:24:32;4.05;;;1.80;;
28343;SDS011;15597;50.914;6.638;2024-02-26T13:26:58;4.50;;;1.88;;
28343;SDS011;15597;50.914;6.638;2024-02-26T13:29:24;6.07;;;2.30;;
28343;SDS011;15597;50.914;6.638;2024-02-26T13:34:26;4.55;;;2.25;;
28343;SDS011;15597;50.914;6.638;2024-02-26T13:36:53;4.47;;;1.60;;
28343;SDS011;15597;50.914;6.638;2024-02-26T13:39:23;4.30;;;2.10;;
28343;SDS011;15597;50.914;6.638;2024-02-26T13:41:50;5.30;;;2.38;;
28343;SDS011;15597;50.914;6.638;2024-02-26T13:44:16;3.90;;;1.73;;
28343;SDS011;15597;50.914;6.638;2024-02-26T13:46:42;4.50;;;2.17;;
28343;SDS011;15597;50.914;6.638;2024-02-26T13:49:08;4.88;;;1.90;;
28343;SDS011;15597;50.914;6.638;2024-02-26T13:51:35;4.97;;;2.17;;
28343;SDS011;15597;50.914;6.638;2024-02-26T13:54:01;5.30;;;2.22;;
28343;SDS011;15597;50.914;6.638;2024-02-26T13:56:27;4.55;;;2.13;;
28343;SDS011;15597;50.914;6.638;2024-02-26T13:58:53;4.13;;;1.80;;
28343;SDS011;15597;50.914;6.638;2024-02-26T14:01:19;4.90;;;2.22;;
28343;SDS011;15597;50.914;6.638;2024-02-26T14:03:44;5.65;;;2.33;;
28343;SDS011;15597;50.914;6.638;2024-02-26T14:06:10;5.38;;;1.98;;
28343;SDS011;15597;50.914;6.638;2024-02-26T14:08:36;6.20;;;2.35;;
28343;SDS011;15597;50.914;6.638;2024-02-26T14:11:02;5.80;;;2.60;;
28343;SDS011;15597;50.914;6.638;2024-02-26T14:13:28;5.30;;;2.38;;
28343;SDS011;15597;50.914;6.638;2024-02-26T14:15:53;6.20;;;2.80;;
28343;SDS011;15597;50.914;6.638;2024-02-26T14:18:19;5.53;;;2.53;;
28343;SDS011;15597;50.914;6.638;2024-02-26T14:20:45;7.22;;;2.90;;
28343;SDS011;15597;50.914;6.638;2024-02-26T14:23:10;4.95;;;2.05;;
28343;SDS011;15597;50.914;6.638;2024-02-26T14:25:36;5.05;;;2.03;;
28343;SDS011;15597;50.914;6.638;2024-02-26T14:28:02;6.22;;;2.75;;
28343;SDS011;15597;50.914;6.638;2024-02-26T14:30:28;10.15;;;3.60;;
28343;SDS011;15597;50.914;6.638;2024-02-26T14:32:54;5.90;;;2.92;;
28343;SDS011;15597;50.914;6.638;2024-02-26T14:35:20;4.78;;;2.60;;
28343;SDS011;15597;50.914;6.638;2024-02-26T14:37:46;7.43;;;3.00;;
28343;SDS011;15597;50.914;6.638;2024-02-26T14:40:13;5.65;;;2.67;;
28343;SDS011;15597;50.914;6.638;2024-02-26T14:42:39;8.93;;;3.72;;
28343;SDS011;15597;50.914;6.638;2024-02-26T14:45:06;8.25;;;4.45;;
28343;SDS011;15597;50.914;6.638;2024-02-26T14:47:34;8.52;;;4.47;;
28343;SDS011;15597;50.914;6.638;2024-02-26T14:50:00;7.88;;;3.95;;
28343;SDS011;15597;50.914;6.638;2024-02-26T14:52:26;9.20;;;5.07;;
28343;SDS011;15597;50.914;6.638;2024-02-26T14:54:52;13.27;;;6.72;;
28343;SDS011;15597;50.914;6.638;2024-02-26T14:57:18;12.57;;;6.07;;
28343;SDS011;15597;50.914;6.638;2024-02-26T14:59:44;12.55;;;6.85;;